createdAt,value
2019-03-31T00:01:07.562Z,94.70
2019-03-31T00:03:26.236Z,94.70
2019-03-31T00:05:55.207Z,94.70
2019-03-31T00:08:26.856Z,94.70
2019-03-31T00:10:55.815Z,94.70
2019-03-31T00:13:24.762Z,94.50
2019-03-31T00:15:53.788Z,94.50
2019-03-31T00:18:22.738Z,94.50
2019-03-31T00:20:51.726Z,94.80
2019-03-31T00:23:20.656Z,95.00
2019-03-31T00:25:51.267Z,95.00
2019-03-31T00:28:20.635Z,95.10
2019-03-31T00:30:49.846Z,95.30
2019-03-31T00:33:18.796Z,95.30
2019-03-31T00:35:47.766Z,95.20
2019-03-31T00:38:18.244Z,95.10
2019-03-31T00:40:47.216Z,95.20
2019-03-31T00:43:16.205Z,95.40
2019-03-31T00:45:45.165Z,95.40
2019-03-31T00:48:14.250Z,95.60
2019-03-31T00:50:43.271Z,95.80
2019-03-31T00:53:12.218Z,96.00
2019-03-31T00:55:41.202Z,96.00
2019-03-31T00:58:10.189Z,96.10
2019-03-31T01:00:47.175Z,96.10
2019-03-31T01:03:18.113Z,96.00
2019-03-31T01:05:47.128Z,96.00
2019-03-31T01:08:17.142Z,96.00
2019-03-31T01:10:46.616Z,96.10
2019-03-31T01:13:15.650Z,96.10
2019-03-31T01:15:44.733Z,96.20
2019-03-31T01:18:14.026Z,96.30
2019-03-31T01:20:44.277Z,96.40
2019-03-31T01:23:13.463Z,96.40
2019-03-31T01:25:42.483Z,96.40
2019-03-31T01:28:11.591Z,96.60
2019-03-31T01:30:40.774Z,96.60
2019-03-31T01:33:09.988Z,96.60
2019-03-31T01:35:40.148Z,96.50
2019-03-31T01:38:09.130Z,96.40
2019-03-31T01:40:38.123Z,96.30
2019-03-31T01:43:07.233Z,96.20
2019-03-31T01:45:37.643Z,96.10
2019-03-31T01:48:09.548Z,96.00
2019-03-31T01:50:38.502Z,95.90
2019-03-31T01:53:07.452Z,95.90
2019-03-31T01:55:36.392Z,95.80
2019-03-31T01:58:06.991Z,95.80
2019-03-31T02:00:39.182Z,95.90
2019-03-31T02:03:08.214Z,95.80
2019-03-31T02:05:37.317Z,95.70
2019-03-31T02:08:07.245Z,95.60
2019-03-31T02:10:37.718Z,95.50
2019-03-31T02:13:07.355Z,95.50
2019-03-31T02:15:36.394Z,95.60
2019-03-31T02:18:05.481Z,95.90
2019-03-31T02:20:34.454Z,96.00
2019-03-31T02:23:03.467Z,96.10
2019-03-31T02:25:33.741Z,96.00
2019-03-31T02:28:02.741Z,95.90
2019-03-31T02:30:31.711Z,95.90
2019-03-31T02:33:00.674Z,95.70
2019-03-31T02:35:32.386Z,95.70
2019-03-31T02:38:00.373Z,95.70
2019-03-31T02:40:29.351Z,95.60
2019-03-31T02:42:58.560Z,95.60
2019-03-31T02:45:27.533Z,95.60
2019-03-31T02:47:56.458Z,95.60
2019-03-31T02:50:47.638Z,95.70
2019-03-31T02:53:17.721Z,95.70
2019-03-31T02:55:51.835Z,95.90
2019-03-31T02:58:23.069Z,96.00
2019-03-31T03:00:52.180Z,96.10
2019-03-31T03:03:21.269Z,96.20
2019-03-31T03:05:50.389Z,96.20
2019-03-31T03:08:19.956Z,96.30
2019-03-31T03:10:52.173Z,96.30
2019-03-31T03:13:24.661Z,96.30
2019-03-31T03:16:08.897Z,96.20
2019-03-31T03:18:37.988Z,96.20
2019-03-31T03:21:06.995Z,96.00
2019-03-31T03:23:35.939Z,95.90
2019-03-31T03:26:07.815Z,95.80
2019-03-31T03:28:36.780Z,95.80
2019-03-31T03:31:13.934Z,96.10
2019-03-31T03:33:39.232Z,96.10
2019-03-31T03:36:07.214Z,96.20
2019-03-31T03:38:36.154Z,96.20
2019-03-31T03:41:05.179Z,96.00
2019-03-31T03:43:34.218Z,96.00
2019-03-31T03:46:03.299Z,96.00
2019-03-31T03:48:32.554Z,95.80
2019-03-31T03:51:01.595Z,95.60
2019-03-31T03:53:32.120Z,95.80
2019-03-31T03:56:01.141Z,95.70
2019-03-31T03:58:30.128Z,95.60
2019-03-31T04:00:59.166Z,95.80
2019-03-31T04:03:30.635Z,96.00
2019-03-31T04:05:58.922Z,96.20
2019-03-31T04:08:27.882Z,96.40
2019-03-31T04:11:08.976Z,96.50
2019-03-31T04:13:37.936Z,96.70
2019-03-31T04:16:06.880Z,96.80
2019-03-31T04:18:35.949Z,97.10
2019-03-31T04:21:05.091Z,96.90
2019-03-31T04:23:34.133Z,96.90
2019-03-31T04:26:03.066Z,97.00
2019-03-31T04:28:32.098Z,97.00
2019-03-31T04:31:01.108Z,97.00
2019-03-31T04:33:48.448Z,97.10
2019-03-31T04:36:00.769Z,97.20
2019-03-31T04:38:29.810Z,97.30
2019-03-31T04:40:58.756Z,97.40
2019-03-31T04:43:27.719Z,97.50
2019-03-31T04:45:56.761Z,97.60
2019-03-31T04:48:25.724Z,97.70
2019-03-31T04:50:54.668Z,98.00
2019-03-31T04:53:23.638Z,99.20
2019-03-31T04:55:52.578Z,99.80
2019-03-31T04:58:21.547Z,99.70
2019-03-31T05:00:50.515Z,99.90
2019-03-31T05:03:19.542Z,99.90
2019-03-31T05:05:48.559Z,99.90
2019-03-31T05:08:17.523Z,99.90
2019-03-31T05:10:46.499Z,99.80
2019-03-31T05:13:15.495Z,99.70
2019-03-31T05:15:44.514Z,99.70
2019-03-31T05:18:13.530Z,99.60
2019-03-31T05:20:42.568Z,99.60
2019-03-31T05:23:11.490Z,99.50
2019-03-31T05:25:40.461Z,99.50
2019-03-31T05:28:09.390Z,99.40
2019-03-31T05:30:38.362Z,99.20
2019-03-31T05:33:07.363Z,99.20
2019-03-31T05:35:36.414Z,99.10
2019-03-31T05:38:05.488Z,99.10
2019-03-31T05:40:34.450Z,99.10
2019-03-31T05:43:03.466Z,99.10
2019-03-31T05:45:32.411Z,99.20
2019-03-31T05:48:01.346Z,99.10
2019-03-31T05:50:30.318Z,99.10
2019-03-31T05:52:59.254Z,99.10
2019-03-31T05:55:28.291Z,99.10
2019-03-31T05:57:57.246Z,99.20
2019-03-31T06:00:31.534Z,99.30
2019-03-31T06:03:00.570Z,99.30
2019-03-31T06:05:29.524Z,99.20
2019-03-31T06:07:59.064Z,99.20
2019-03-31T06:10:28.047Z,99.00
2019-03-31T06:12:56.994Z,98.90
2019-03-31T06:15:25.942Z,98.90
2019-03-31T06:17:54.926Z,98.90
2019-03-31T06:20:23.945Z,99.00
2019-03-31T06:22:53.041Z,99.10
2019-03-31T06:25:21.999Z,99.20
2019-03-31T06:27:51.015Z,99.40
2019-03-31T06:30:20.294Z,99.10
2019-03-31T06:32:49.353Z,98.90
2019-03-31T06:35:18.375Z,98.80
2019-03-31T06:37:47.372Z,98.90
2019-03-31T06:40:16.462Z,98.90
2019-03-31T06:42:45.441Z,99.00
2019-03-31T06:45:14.458Z,98.90
2019-03-31T06:47:43.453Z,98.70
2019-03-31T06:50:12.743Z,98.70
2019-03-31T06:52:41.713Z,98.70
2019-03-31T06:55:10.788Z,98.60
2019-03-31T06:57:39.856Z,98.50
2019-03-31T07:00:09.236Z,98.50
2019-03-31T07:02:38.191Z,98.50
2019-03-31T07:05:07.802Z,98.30
2019-03-31T07:07:36.775Z,98.00
2019-03-31T07:10:07.401Z,98.20
2019-03-31T07:12:36.796Z,98.20
2019-03-31T07:15:09.502Z,98.20
2019-03-31T07:17:38.689Z,98.30
2019-03-31T07:20:08.851Z,98.30
2019-03-31T07:22:37.939Z,98.10
2019-03-31T07:25:08.442Z,98.00
2019-03-31T07:27:38.197Z,97.80
2019-03-31T07:30:09.987Z,97.70
2019-03-31T07:32:38.943Z,97.50
2019-03-31T07:35:18.404Z,97.40
2019-03-31T07:37:47.296Z,97.20
2019-03-31T07:40:12.720Z,96.90
2019-03-31T07:42:41.730Z,97.10
2019-03-31T07:45:11.557Z,96.20
2019-03-31T07:47:40.482Z,95.90
2019-03-31T07:50:17.088Z,95.40
2019-03-31T07:52:46.158Z,95.30
2019-03-31T07:55:15.854Z,95.10
2019-03-31T07:57:44.795Z,94.80
2019-03-31T08:00:18.797Z,94.10
2019-03-31T08:02:47.828Z,93.70
2019-03-31T08:05:31.879Z,93.50
2019-03-31T08:07:48.357Z,92.60
2019-03-31T08:10:19.033Z,92.50
2019-03-31T08:12:47.993Z,92.10
2019-03-31T08:15:17.243Z,91.00
2019-03-31T08:17:46.304Z,90.80
2019-03-31T08:20:17.213Z,90.20
2019-03-31T08:22:46.303Z,90.20
2019-03-31T08:25:16.010Z,89.50
2019-03-31T08:27:44.940Z,90.10
2019-03-31T08:30:15.166Z,90.80
2019-03-31T08:32:44.112Z,91.10
2019-03-31T08:35:13.443Z,91.50
2019-03-31T08:37:42.463Z,91.40
2019-03-31T08:40:12.595Z,91.50
2019-03-31T08:42:41.730Z,91.20
2019-03-31T08:45:11.532Z,91.40
2019-03-31T08:47:40.661Z,91.20
2019-03-31T08:50:12.387Z,91.40
2019-03-31T08:52:41.392Z,91.70
2019-03-31T08:55:10.794Z,91.80
2019-03-31T08:57:39.836Z,91.40
2019-03-31T09:00:12.188Z,91.00
2019-03-31T09:02:41.333Z,90.00
2019-03-31T09:05:11.003Z,89.60
2019-03-31T09:07:41.857Z,88.20
2019-03-31T09:10:11.957Z,86.40
2019-03-31T09:12:41.247Z,85.10
2019-03-31T09:15:12.571Z,84.80
2019-03-31T09:17:41.680Z,85.10
2019-03-31T09:20:12.544Z,85.90
2019-03-31T09:22:41.512Z,87.30
2019-03-31T09:25:10.742Z,86.00
2019-03-31T09:27:39.730Z,84.50
2019-03-31T09:30:10.635Z,83.60
2019-03-31T09:32:39.741Z,82.00
2019-03-31T09:35:09.732Z,78.60
2019-03-31T09:37:38.793Z,75.30
2019-03-31T09:40:10.119Z,75.40
2019-03-31T09:42:39.158Z,77.00
2019-03-31T09:45:08.925Z,77.30
2019-03-31T09:47:38.943Z,77.20
2019-03-31T09:50:16.839Z,74.50
2019-03-31T09:52:44.223Z,70.90
2019-03-31T09:55:13.364Z,69.90
2019-03-31T09:57:42.394Z,72.50
2019-03-31T10:00:17.267Z,73.20
2019-03-31T10:02:46.249Z,74.50
2019-03-31T10:05:15.336Z,76.50
2019-03-31T10:07:45.642Z,79.40
2019-03-31T10:10:31.947Z,80.40
2019-03-31T10:13:01.343Z,81.20
2019-03-31T10:15:30.425Z,81.30
2019-03-31T10:17:59.460Z,80.90
2019-03-31T10:20:31.289Z,80.20
2019-03-31T10:22:59.201Z,79.00
2019-03-31T10:25:28.135Z,78.50
2019-03-31T10:27:57.094Z,78.70
2019-03-31T10:30:39.415Z,78.30
2019-03-31T10:33:08.932Z,77.40
2019-03-31T10:35:38.064Z,78.00
2019-03-31T10:38:07.363Z,78.40
2019-03-31T10:40:36.474Z,78.30
2019-03-31T10:43:05.560Z,80.00
2019-03-31T10:45:34.620Z,79.90
2019-03-31T10:48:03.715Z,79.50
2019-03-31T10:50:32.727Z,79.40
2019-03-31T10:53:01.696Z,80.10
2019-03-31T10:55:30.736Z,80.40
2019-03-31T10:57:59.749Z,79.80
2019-03-31T11:00:38.350Z,80.40
2019-03-31T11:03:07.836Z,80.20
2019-03-31T11:05:37.054Z,78.00
2019-03-31T11:08:06.621Z,76.00
2019-03-31T11:10:36.003Z,75.60
2019-03-31T11:13:05.070Z,73.90
2019-03-31T11:15:34.328Z,73.50
2019-03-31T11:18:03.652Z,73.10
2019-03-31T11:20:32.637Z,72.80
2019-03-31T11:23:08.827Z,72.80
2019-03-31T11:25:37.998Z,74.00
2019-03-31T11:28:06.923Z,73.30
2019-03-31T11:30:35.910Z,73.70
2019-03-31T11:33:07.412Z,73.70
2019-03-31T11:35:35.590Z,74.90
2019-03-31T11:38:04.626Z,74.70
2019-03-31T11:40:33.732Z,74.70
2019-03-31T11:43:02.773Z,74.30
2019-03-31T11:45:31.836Z,74.40
2019-03-31T11:48:00.808Z,73.40
2019-03-31T11:50:29.760Z,73.50
2019-03-31T11:52:58.740Z,73.50
2019-03-31T11:55:27.783Z,72.50
2019-03-31T11:57:56.874Z,70.70
2019-03-31T12:00:27.479Z,70.10
2019-03-31T12:02:56.457Z,67.10
2019-03-31T12:05:25.537Z,61.10
2019-03-31T12:07:54.490Z,55.30
2019-03-31T12:10:23.571Z,52.10
2019-03-31T12:12:52.529Z,51.10
2019-03-31T12:15:21.543Z,50.80
2019-03-31T12:17:50.517Z,53.40
2019-03-31T12:20:20.199Z,56.80
2019-03-31T12:22:49.160Z,59.80
2019-03-31T12:25:19.794Z,62.60
2019-03-31T12:27:48.756Z,65.90
2019-03-31T12:30:20.823Z,67.50
2019-03-31T12:32:49.824Z,69.20
2019-03-31T12:35:18.808Z,70.20
2019-03-31T12:37:48.121Z,68.50
2019-03-31T12:40:32.103Z,69.20
2019-03-31T12:43:01.151Z,72.10
2019-03-31T12:45:30.250Z,71.30
2019-03-31T12:48:01.380Z,71.10
2019-03-31T12:50:30.763Z,70.20
2019-03-31T12:52:59.740Z,68.80
2019-03-31T12:55:28.686Z,68.00
2019-03-31T12:57:57.722Z,68.90
2019-03-31T13:00:26.748Z,69.60
2019-03-31T13:02:55.682Z,69.40
2019-03-31T13:05:24.743Z,70.30
2019-03-31T13:07:56.678Z,70.30
2019-03-31T13:10:24.395Z,70.90
2019-03-31T13:12:53.322Z,69.70
2019-03-31T13:15:22.387Z,69.70
2019-03-31T13:17:51.475Z,70.10
2019-03-31T13:20:20.539Z,70.30
2019-03-31T13:22:49.559Z,70.20
2019-03-31T13:25:18.608Z,69.40
2019-03-31T13:27:47.583Z,70.30
2019-03-31T13:30:16.790Z,69.80
2019-03-31T13:32:45.724Z,68.40
2019-03-31T13:35:14.858Z,67.40
2019-03-31T13:37:43.800Z,66.30
2019-03-31T13:40:13.410Z,61.00
2019-03-31T13:42:42.481Z,53.40
2019-03-31T13:45:11.698Z,43.90
2019-03-31T13:47:40.722Z,37.40
2019-03-31T13:50:10.832Z,32.60
2019-03-31T13:52:39.830Z,31.20
2019-03-31T13:55:09.805Z,30.10
2019-03-31T13:57:40.080Z,29.80
2019-03-31T14:00:11.178Z,31.90
2019-03-31T14:02:40.547Z,35.90
2019-03-31T14:05:10.117Z,39.40
2019-03-31T14:07:39.100Z,43.10
2019-03-31T14:10:08.189Z,43.10
2019-03-31T14:12:37.167Z,42.60
2019-03-31T14:15:18.890Z,41.30
2019-03-31T14:17:41.230Z,39.20
2019-03-31T14:20:10.446Z,35.60
2019-03-31T14:22:39.433Z,30.80
2019-03-31T14:25:08.572Z,29.00
2019-03-31T14:27:37.599Z,29.30
2019-03-31T14:30:07.491Z,28.90
2019-03-31T14:32:36.458Z,26.90
2019-03-31T14:35:06.121Z,27.70
2019-03-31T14:37:35.170Z,28.10
2019-03-31T14:40:04.750Z,29.50
2019-03-31T14:42:33.800Z,31.90
2019-03-31T14:45:02.827Z,35.10
2019-03-31T14:47:31.793Z,36.00
2019-03-31T14:50:00.804Z,35.80
2019-03-31T14:52:29.752Z,35.30
2019-03-31T14:54:58.733Z,33.30
2019-03-31T14:57:27.753Z,32.80
2019-03-31T14:59:56.730Z,32.00
2019-03-31T15:02:25.760Z,29.80
2019-03-31T15:04:54.788Z,29.00
2019-03-31T15:07:23.725Z,28.60
2019-03-31T15:09:52.695Z,30.90
2019-03-31T15:12:21.722Z,34.40
2019-03-31T15:14:50.733Z,37.10
2019-03-31T15:17:19.679Z,38.20
2019-03-31T15:19:48.713Z,39.30
2019-03-31T15:22:17.706Z,38.80
2019-03-31T15:24:46.694Z,39.90
2019-03-31T15:27:15.640Z,39.70
2019-03-31T15:29:44.615Z,40.10
2019-03-31T15:32:13.562Z,41.30
2019-03-31T15:34:42.598Z,41.60
2019-03-31T15:37:11.591Z,42.40
2019-03-31T15:39:40.537Z,43.50
2019-03-31T15:42:09.566Z,44.60
2019-03-31T15:44:38.559Z,45.60
2019-03-31T15:47:07.603Z,47.50
2019-03-31T15:49:36.642Z,48.00
2019-03-31T15:52:08.711Z,48.80
2019-03-31T15:54:36.407Z,48.60
2019-03-31T15:57:05.373Z,48.10
2019-03-31T15:59:34.397Z,48.30
2019-03-31T16:02:03.514Z,47.70
2019-03-31T16:04:32.460Z,47.20
2019-03-31T16:07:01.430Z,46.70
2019-03-31T16:09:30.374Z,46.70
2019-03-31T16:11:59.368Z,45.30
2019-03-31T16:14:28.309Z,43.70
2019-03-31T16:16:57.278Z,43.30
2019-03-31T16:19:26.371Z,42.70
2019-03-31T16:21:55.360Z,42.10
2019-03-31T16:24:25.929Z,41.60
2019-03-31T16:26:54.906Z,42.30
2019-03-31T16:29:23.929Z,44.60
2019-03-31T16:31:52.896Z,44.90
2019-03-31T16:34:21.913Z,45.20
2019-03-31T16:36:50.902Z,46.90
2019-03-31T16:39:19.840Z,47.70
2019-03-31T16:41:48.845Z,48.70
2019-03-31T16:44:17.972Z,48.90
2019-03-31T16:46:46.949Z,49.80
2019-03-31T16:49:16.044Z,50.20
2019-03-31T16:51:45.065Z,49.50
2019-03-31T16:54:14.087Z,50.80
2019-03-31T16:56:43.054Z,51.30
2019-03-31T16:59:12.067Z,51.70
2019-03-31T17:01:41.015Z,51.10
2019-03-31T17:04:10.067Z,52.70
2019-03-31T17:06:39.101Z,52.70
2019-03-31T17:09:08.249Z,53.30
2019-03-31T17:11:37.263Z,54.70
2019-03-31T17:14:06.266Z,55.60
2019-03-31T17:16:35.210Z,55.50
2019-03-31T17:19:04.317Z,56.50
2019-03-31T17:21:33.234Z,57.20
2019-03-31T17:24:02.334Z,56.90
2019-03-31T17:26:31.275Z,57.60
2019-03-31T17:29:00.321Z,58.40
2019-03-31T17:31:29.331Z,57.70
2019-03-31T17:33:58.314Z,58.60
2019-03-31T17:36:27.317Z,59.20
2019-03-31T17:38:56.358Z,60.70
2019-03-31T17:41:25.328Z,60.40
2019-03-31T17:43:54.375Z,60.00
2019-03-31T17:46:23.413Z,60.80
2019-03-31T17:48:52.402Z,60.30
2019-03-31T17:51:21.477Z,60.60
2019-03-31T17:53:50.564Z,60.50
2019-03-31T17:56:19.553Z,61.30
2019-03-31T17:58:48.557Z,61.80
2019-03-31T18:01:17.552Z,61.90
2019-03-31T18:03:46.573Z,63.20
2019-03-31T18:06:15.566Z,63.10
2019-03-31T18:08:44.571Z,64.30
2019-03-31T18:11:13.707Z,65.10
2019-03-31T18:13:42.803Z,65.40
2019-03-31T18:16:11.859Z,65.60
2019-03-31T18:18:40.783Z,66.40
2019-03-31T18:21:09.931Z,66.70
2019-03-31T18:23:39.012Z,68.00
2019-03-31T18:26:08.044Z,67.90
2019-03-31T18:28:36.978Z,68.70
2019-03-31T18:31:05.946Z,69.50
2019-03-31T18:33:34.884Z,69.80
2019-03-31T18:36:03.993Z,70.50
2019-03-31T18:38:33.097Z,70.90
2019-03-31T18:41:03.781Z,71.60
2019-03-31T18:43:32.837Z,72.00
2019-03-31T18:46:02.782Z,72.40
2019-03-31T18:48:31.883Z,72.50
2019-03-31T18:51:00.834Z,72.70
2019-03-31T18:53:46.571Z,73.10
2019-03-31T18:56:33.488Z,73.50
2019-03-31T18:59:20.323Z,74.10
2019-03-31T19:01:59.789Z,74.20
2019-03-31T19:04:42.356Z,74.70
2019-03-31T19:07:29.600Z,75.20
2019-03-31T19:10:03.012Z,75.40
2019-03-31T19:12:39.095Z,75.40
2019-03-31T19:15:12.522Z,76.10
2019-03-31T19:17:49.176Z,76.40
2019-03-31T19:20:20.533Z,76.50
2019-03-31T19:23:00.514Z,76.80
2019-03-31T19:25:31.091Z,77.10
2019-03-31T19:28:04.138Z,77.60
2019-03-31T19:30:47.037Z,77.90
2019-03-31T19:33:35.555Z,78.40
2019-03-31T19:36:06.263Z,78.50
2019-03-31T19:38:39.623Z,78.60
2019-03-31T19:41:25.515Z,78.90
2019-03-31T19:44:02.243Z,79.10
2019-03-31T19:46:41.558Z,79.60
2019-03-31T19:49:23.794Z,79.80
2019-03-31T19:52:10.559Z,79.70
2019-03-31T19:54:43.963Z,79.90
2019-03-31T19:57:14.613Z,79.70
2019-03-31T19:59:45.227Z,79.60
2019-03-31T20:02:25.159Z,80.10
2019-03-31T20:05:12.339Z,79.70
2019-03-31T20:07:42.929Z,79.20
2019-03-31T20:10:28.722Z,78.80
2019-03-31T20:12:59.362Z,78.60
2019-03-31T20:15:45.152Z,79.20
2019-03-31T20:18:15.710Z,78.50
2019-03-31T20:20:49.044Z,78.30
2019-03-31T20:23:28.733Z,77.90
2019-03-31T20:26:14.283Z,77.80
2019-03-31T20:29:03.148Z,78.20
2019-03-31T20:31:39.760Z,78.40
2019-03-31T20:34:10.325Z,78.50
2019-03-31T20:36:43.678Z,78.70
2019-03-31T20:39:23.054Z,78.40
2019-03-31T20:41:53.669Z,78.60
2019-03-31T20:44:24.964Z,78.60
2019-03-31T20:46:53.920Z,79.40
2019-03-31T20:49:22.863Z,79.20
2019-03-31T20:51:51.825Z,79.40
2019-03-31T20:54:20.840Z,79.10
2019-03-31T20:56:49.882Z,79.10
2019-03-31T20:59:18.845Z,79.60
2019-03-31T21:01:47.790Z,79.80
2019-03-31T21:04:16.729Z,80.00
2019-03-31T21:06:45.677Z,80.70
2019-03-31T21:09:14.701Z,81.00
2019-03-31T21:11:43.643Z,81.20
2019-03-31T21:14:12.676Z,81.60
2019-03-31T21:16:41.630Z,81.80
2019-03-31T21:19:10.567Z,81.90
2019-03-31T21:21:42.184Z,82.40
2019-03-31T21:24:11.383Z,82.60
2019-03-31T21:26:40.340Z,82.60
2019-03-31T21:29:09.287Z,83.00
2019-03-31T21:31:38.230Z,83.90
2019-03-31T21:34:09.420Z,83.70
2019-03-31T21:36:38.344Z,84.10
2019-03-31T21:39:07.797Z,84.10
2019-03-31T21:41:36.735Z,84.60
2019-03-31T21:44:05.769Z,85.00
2019-03-31T21:46:34.775Z,85.30
2019-03-31T21:49:03.986Z,85.50
2019-03-31T21:51:32.988Z,85.60
2019-03-31T21:54:02.023Z,85.90
2019-03-31T21:56:30.943Z,85.90
2019-03-31T21:59:00.003Z,86.30
2019-03-31T22:01:30.635Z,86.50
2019-03-31T22:03:59.584Z,86.80
2019-03-31T22:06:28.568Z,86.90
2019-03-31T22:08:57.546Z,87.00
2019-03-31T22:11:26.478Z,87.20
2019-03-31T22:13:57.090Z,87.30
2019-03-31T22:16:26.038Z,87.60
2019-03-31T22:18:55.094Z,87.80
2019-03-31T22:21:24.011Z,87.90
2019-03-31T22:23:58.096Z,88.20
2019-03-31T22:26:23.612Z,88.10
2019-03-31T22:28:54.099Z,88.50
2019-03-31T22:31:23.207Z,88.60
2019-03-31T22:33:52.169Z,89.00
2019-03-31T22:36:21.120Z,88.60
2019-03-31T22:38:53.933Z,88.70
2019-03-31T22:41:23.061Z,88.80
2019-03-31T22:43:51.977Z,89.10
2019-03-31T22:46:20.924Z,89.20
2019-03-31T22:48:49.871Z,89.50
2019-03-31T22:51:18.942Z,89.50
2019-03-31T22:53:47.862Z,89.60
2019-03-31T22:56:16.822Z,89.60
2019-03-31T22:58:45.835Z,89.60
2019-03-31T23:01:14.860Z,89.80
2019-03-31T23:03:43.789Z,89.80
2019-03-31T23:06:12.735Z,90.00
2019-03-31T23:08:41.680Z,90.00
2019-03-31T23:11:10.627Z,90.10
2019-03-31T23:13:39.628Z,90.00
2019-03-31T23:16:11.388Z,90.10
2019-03-31T23:18:40.322Z,90.10
2019-03-31T23:21:09.338Z,90.10
2019-03-31T23:23:38.278Z,90.20
2019-03-31T23:26:07.244Z,90.20
2019-03-31T23:28:37.809Z,90.20
2019-03-31T23:31:06.772Z,90.30
2019-03-31T23:33:35.696Z,90.30
2019-03-31T23:36:04.654Z,90.20
2019-03-31T23:38:33.594Z,90.40
2019-03-31T23:41:02.565Z,90.20
2019-03-31T23:43:31.475Z,90.20
2019-03-31T23:46:00.431Z,90.30
2019-03-31T23:48:31.250Z,90.30
2019-03-31T23:51:00.193Z,90.30
2019-03-31T23:53:29.123Z,90.30
2019-03-31T23:55:58.070Z,90.30
2019-03-31T23:58:27.014Z,90.40
